createdAt,value
2016-12-31T00:00:16.530Z,0
2016-12-31T00:01:30.804Z,0
2016-12-31T00:02:45.155Z,0
2016-12-31T00:03:59.652Z,0
2016-12-31T00:05:13.970Z,0
2016-12-31T00:06:30.535Z,0
2016-12-31T00:07:44.983Z,0
2016-12-31T00:08:59.176Z,0
2016-12-31T00:10:13.876Z,0
2016-12-31T00:11:28.113Z,0
2016-12-31T00:12:42.345Z,0
2016-12-31T00:13:56.432Z,0
2016-12-31T00:15:20.966Z,0
2016-12-31T00:16:36.771Z,0
2016-12-31T00:17:51.002Z,0
2016-12-31T00:19:05.123Z,0
2016-12-31T00:20:19.370Z,0
2016-12-31T00:21:33.524Z,0
2016-12-31T00:22:48.078Z,0
2016-12-31T00:24:02.172Z,0
2016-12-31T00:25:16.410Z,0
2016-12-31T00:26:42.232Z,0
2016-12-31T00:27:56.430Z,0
2016-12-31T00:29:10.498Z,0
2016-12-31T00:30:24.734Z,0
2016-12-31T00:31:38.873Z,0
2016-12-31T00:32:53.216Z,0
2016-12-31T00:34:07.289Z,0
2016-12-31T00:35:21.514Z,0
2016-12-31T00:36:35.661Z,0
2016-12-31T00:37:49.884Z,0
2016-12-31T00:39:03.940Z,0
2016-12-31T00:40:18.267Z,0
2016-12-31T00:41:32.878Z,0
2016-12-31T00:42:47.310Z,0
2016-12-31T00:44:01.432Z,0
2016-12-31T00:45:15.666Z,0
2016-12-31T00:46:29.878Z,0
2016-12-31T00:47:45.286Z,0
2016-12-31T00:48:59.506Z,0
2016-12-31T00:50:13.571Z,0
2016-12-31T00:51:27.800Z,0
2016-12-31T00:52:43.261Z,0
2016-12-31T00:53:57.994Z,0
2016-12-31T00:55:12.121Z,0
2016-12-31T00:56:26.432Z,0
2016-12-31T00:57:40.699Z,0
2016-12-31T00:58:55.057Z,0
2016-12-31T01:00:10.317Z,0
2016-12-31T01:01:24.777Z,0
2016-12-31T01:02:38.958Z,0
2016-12-31T01:03:53.316Z,0
2016-12-31T01:05:07.543Z,0
2016-12-31T01:06:21.987Z,0
2016-12-31T01:07:36.118Z,0
2016-12-31T01:08:51.778Z,0
2016-12-31T01:10:06.144Z,0
2016-12-31T01:11:20.515Z,0
2016-12-31T01:12:34.793Z,0
2016-12-31T01:13:49.265Z,0
2016-12-31T01:15:03.479Z,0
2016-12-31T01:16:17.849Z,0
2016-12-31T01:17:31.997Z,0
2016-12-31T01:18:46.403Z,0
2016-12-31T01:20:00.612Z,0
2016-12-31T01:21:15.037Z,0
2016-12-31T01:22:29.232Z,0
2016-12-31T01:23:43.685Z,0
2016-12-31T01:24:57.863Z,0
2016-12-31T01:26:12.206Z,0
2016-12-31T01:27:26.371Z,0
2016-12-31T01:28:40.788Z,0
2016-12-31T01:29:55.027Z,0
2016-12-31T01:31:09.382Z,0
2016-12-31T01:32:23.680Z,0
2016-12-31T01:33:38.043Z,0
2016-12-31T01:34:52.276Z,0
2016-12-31T01:36:06.703Z,0
2016-12-31T01:37:20.782Z,0
2016-12-31T01:38:35.123Z,0
2016-12-31T01:39:49.267Z,0
2016-12-31T01:41:20.593Z,0
2016-12-31T01:42:35.007Z,0
2016-12-31T01:43:51.671Z,0
2016-12-31T01:45:07.116Z,0
2016-12-31T01:46:21.617Z,0
2016-12-31T01:47:36.049Z,0
2016-12-31T01:48:50.464Z,0
2016-12-31T01:50:04.625Z,0
2016-12-31T01:51:18.898Z,0
2016-12-31T01:52:52.625Z,0
2016-12-31T01:54:07.159Z,0
2016-12-31T01:55:21.416Z,0
2016-12-31T01:56:35.960Z,0
2016-12-31T01:57:50.142Z,0
2016-12-31T01:59:04.770Z,0
2016-12-31T02:00:19.004Z,0
2016-12-31T02:01:33.315Z,0
2016-12-31T02:03:13.147Z,0
2016-12-31T02:04:27.923Z,0
2016-12-31T02:05:42.169Z,0
2016-12-31T02:06:57.174Z,0
2016-12-31T02:08:11.981Z,0
2016-12-31T02:09:26.428Z,0
2016-12-31T02:10:40.825Z,0
2016-12-31T02:11:55.098Z,0
2016-12-31T02:13:09.232Z,0
2016-12-31T02:14:23.496Z,0
2016-12-31T02:15:37.640Z,0
2016-12-31T02:16:52.166Z,0
2016-12-31T02:18:06.261Z,0
2016-12-31T02:19:21.300Z,0
2016-12-31T02:20:35.511Z,0
2016-12-31T02:21:49.747Z,0
2016-12-31T02:23:04.145Z,0
2016-12-31T02:24:18.394Z,0
2016-12-31T02:25:32.958Z,0
2016-12-31T02:26:47.236Z,0
2016-12-31T02:28:01.321Z,0
2016-12-31T02:29:15.873Z,0
2016-12-31T02:30:30.114Z,0
2016-12-31T02:31:44.420Z,0
2016-12-31T02:32:58.558Z,0
2016-12-31T02:34:12.945Z,0
2016-12-31T02:35:27.345Z,0
2016-12-31T02:36:41.681Z,0
2016-12-31T02:37:55.784Z,0
2016-12-31T02:39:10.141Z,0
2016-12-31T02:40:24.230Z,0
2016-12-31T02:41:38.894Z,0
2016-12-31T02:42:52.997Z,0
2016-12-31T02:44:07.255Z,0
2016-12-31T02:45:21.351Z,0
2016-12-31T02:46:35.697Z,0
2016-12-31T02:47:50.212Z,0
2016-12-31T02:49:04.613Z,0
2016-12-31T02:50:18.745Z,0
2016-12-31T02:51:33.277Z,0
2016-12-31T02:52:48.784Z,0
2016-12-31T02:54:03.272Z,0
2016-12-31T02:55:17.684Z,0
2016-12-31T02:56:31.967Z,0
2016-12-31T02:57:46.360Z,0
2016-12-31T02:59:00.506Z,0
2016-12-31T03:00:15.146Z,0
2016-12-31T03:01:31.912Z,0
2016-12-31T03:02:47.405Z,0
2016-12-31T03:04:02.283Z,0
2016-12-31T03:05:16.441Z,0
2016-12-31T03:06:30.970Z,0
2016-12-31T03:07:45.123Z,0
2016-12-31T03:08:59.409Z,0
2016-12-31T03:10:13.695Z,0
2016-12-31T03:11:28.242Z,0
2016-12-31T03:12:42.868Z,0
2016-12-31T03:13:54.735Z,0
2016-12-31T03:15:06.318Z,0
2016-12-31T03:16:18.063Z,0
2016-12-31T03:17:29.648Z,0
2016-12-31T03:18:41.528Z,0
2016-12-31T03:19:53.370Z,0
2016-12-31T03:21:05.236Z,0
2016-12-31T03:22:16.842Z,0
2016-12-31T03:23:28.495Z,0
2016-12-31T03:24:40.149Z,0
2016-12-31T03:25:52.347Z,0
2016-12-31T03:27:03.906Z,0
2016-12-31T03:28:15.655Z,0
2016-12-31T03:29:27.239Z,0
2016-12-31T03:30:46.666Z,0
2016-12-31T03:31:58.300Z,0
2016-12-31T03:33:10.004Z,0
2016-12-31T03:34:21.850Z,0
2016-12-31T03:35:33.442Z,0
2016-12-31T03:36:45.474Z,0
2016-12-31T03:37:57.529Z,0
2016-12-31T03:39:09.545Z,0
2016-12-31T03:40:21.167Z,0
2016-12-31T03:41:34.105Z,0
2016-12-31T03:42:45.681Z,0
2016-12-31T03:43:57.689Z,0
2016-12-31T03:45:09.345Z,0
2016-12-31T03:46:21.885Z,0
2016-12-31T03:47:33.716Z,0
2016-12-31T03:48:46.788Z,0
2016-12-31T03:49:58.694Z,0
2016-12-31T03:51:10.582Z,0
2016-12-31T03:52:22.210Z,0
2016-12-31T03:53:35.309Z,0
2016-12-31T03:54:46.846Z,0
2016-12-31T03:55:59.013Z,0
2016-12-31T03:57:10.560Z,0
2016-12-31T03:58:22.269Z,0
2016-12-31T03:59:43.723Z,0
2016-12-31T04:00:55.527Z,0
2016-12-31T04:02:07.529Z,0
2016-12-31T04:03:19.242Z,0
2016-12-31T04:04:30.930Z,0
2016-12-31T04:05:42.833Z,0
2016-12-31T04:06:54.438Z,0
2016-12-31T04:08:06.664Z,0
2016-12-31T04:09:18.266Z,0
2016-12-31T04:10:39.632Z,0
2016-12-31T04:11:51.365Z,0
2016-12-31T04:13:02.943Z,0
2016-12-31T04:14:44.726Z,0
2016-12-31T04:15:56.458Z,0
2016-12-31T04:17:10.373Z,0
2016-12-31T04:18:23.662Z,0
2016-12-31T04:19:37.601Z,0
2016-12-31T04:20:53.688Z,0
2016-12-31T04:22:07.389Z,0
2016-12-31T04:23:24.330Z,0
2016-12-31T04:24:39.683Z,0
2016-12-31T04:25:53.023Z,0
2016-12-31T04:27:06.335Z,0
2016-12-31T04:28:18.236Z,0
2016-12-31T04:29:31.734Z,0
2016-12-31T04:30:46.092Z,0
2016-12-31T04:31:58.687Z,0
2016-12-31T04:33:10.998Z,0
2016-12-31T04:34:24.334Z,0
2016-12-31T04:35:35.910Z,0
2016-12-31T04:36:47.743Z,0
2016-12-31T04:37:59.421Z,0
2016-12-31T04:39:11.096Z,0
2016-12-31T04:40:23.030Z,0
2016-12-31T04:41:34.864Z,0
2016-12-31T04:42:48.613Z,0
2016-12-31T04:44:07.642Z,0
2016-12-31T04:45:21.852Z,0
2016-12-31T04:46:33.889Z,0
2016-12-31T04:47:46.122Z,0
2016-12-31T04:49:00.683Z,0
2016-12-31T04:50:13.744Z,0
2016-12-31T04:51:25.303Z,0
2016-12-31T04:52:37.375Z,0
2016-12-31T04:53:48.986Z,0
2016-12-31T04:55:00.807Z,0
2016-12-31T04:56:12.443Z,0
2016-12-31T04:57:24.183Z,0
2016-12-31T04:58:36.055Z,0
2016-12-31T04:59:47.692Z,0
2016-12-31T05:00:59.337Z,0
2016-12-31T05:02:11.075Z,0
2016-12-31T05:03:22.690Z,0
2016-12-31T05:04:34.774Z,0
2016-12-31T05:05:46.287Z,0
2016-12-31T05:06:57.989Z,0
2016-12-31T05:08:09.757Z,0
2016-12-31T05:09:21.519Z,0
2016-12-31T05:10:33.352Z,0
2016-12-31T05:11:45.143Z,0
2016-12-31T05:12:56.965Z,0
2016-12-31T05:14:08.627Z,0
2016-12-31T05:15:20.207Z,0
2016-12-31T05:16:32.139Z,0
2016-12-31T05:17:43.662Z,0
2016-12-31T05:18:55.349Z,0
2016-12-31T05:20:07.110Z,0
2016-12-31T05:21:18.825Z,0
2016-12-31T05:22:30.608Z,0
2016-12-31T05:23:42.306Z,0
2016-12-31T05:24:53.898Z,0
2016-12-31T05:26:05.562Z,0
2016-12-31T05:27:17.121Z,0
2016-12-31T05:28:29.222Z,0
2016-12-31T05:29:41.384Z,0
2016-12-31T05:30:56.528Z,0
2016-12-31T05:32:11.746Z,0
2016-12-31T05:33:23.569Z,0
2016-12-31T05:34:35.760Z,0
2016-12-31T05:35:47.330Z,0
2016-12-31T05:36:59.053Z,0
2016-12-31T05:38:10.646Z,0
2016-12-31T05:39:22.455Z,0
2016-12-31T05:40:34.333Z,0
2016-12-31T05:41:47.340Z,0
2016-12-31T05:42:59.492Z,0
2016-12-31T05:44:11.295Z,0
2016-12-31T05:45:22.792Z,0
2016-12-31T05:46:34.709Z,0
2016-12-31T05:47:46.261Z,0
2016-12-31T05:48:57.908Z,0
2016-12-31T05:50:09.430Z,0
2016-12-31T05:51:21.526Z,0
2016-12-31T05:52:33.308Z,0
2016-12-31T05:53:45.365Z,0
2016-12-31T05:54:56.879Z,0
2016-12-31T05:56:11.443Z,0
2016-12-31T05:57:26.638Z,0
2016-12-31T05:58:40.765Z,0
2016-12-31T05:59:55.208Z,0
2016-12-31T06:01:09.310Z,0
2016-12-31T06:02:23.556Z,0
2016-12-31T06:03:38.025Z,0
2016-12-31T06:04:52.545Z,0
2016-12-31T06:06:06.769Z,0
2016-12-31T06:07:21.159Z,0
2016-12-31T06:08:35.309Z,0
2016-12-31T06:09:50.149Z,0
2016-12-31T06:11:04.265Z,0
2016-12-31T06:12:18.558Z,0
2016-12-31T06:13:32.643Z,0
2016-12-31T06:14:47.163Z,0
2016-12-31T06:16:01.344Z,0
2016-12-31T06:17:15.702Z,0
2016-12-31T06:18:29.773Z,0
2016-12-31T06:19:45.351Z,0
2016-12-31T06:20:59.566Z,0
2016-12-31T06:22:14.379Z,0
2016-12-31T06:23:28.514Z,0
2016-12-31T06:24:42.851Z,0
2016-12-31T06:25:56.977Z,0
2016-12-31T06:27:11.455Z,0
2016-12-31T06:28:25.970Z,0
2016-12-31T06:29:40.196Z,0
2016-12-31T06:30:54.369Z,0
2016-12-31T06:32:08.687Z,0
2016-12-31T06:33:22.877Z,0
2016-12-31T06:34:37.483Z,0
2016-12-31T06:35:51.668Z,0
2016-12-31T06:37:06.088Z,0
2016-12-31T06:38:20.274Z,0
2016-12-31T06:39:34.727Z,0
2016-12-31T06:40:49.955Z,0
2016-12-31T06:42:04.292Z,0
2016-12-31T06:43:19.042Z,0
2016-12-31T06:44:33.386Z,0
2016-12-31T06:45:47.553Z,0
2016-12-31T06:47:02.163Z,0
2016-12-31T06:48:18.834Z,0
2016-12-31T06:49:32.940Z,0
2016-12-31T06:50:47.342Z,0
2016-12-31T06:52:02.466Z,0
2016-12-31T06:53:17.158Z,0
2016-12-31T06:54:31.273Z,0
2016-12-31T06:55:46.244Z,0
2016-12-31T06:57:00.434Z,0
2016-12-31T06:58:14.689Z,0
2016-12-31T06:59:28.779Z,0
2016-12-31T07:00:43.182Z,4
2016-12-31T07:01:57.432Z,0
2016-12-31T07:03:11.718Z,0
2016-12-31T07:04:26.054Z,4
2016-12-31T07:05:41.448Z,4
2016-12-31T07:06:55.698Z,4
2016-12-31T07:08:09.771Z,4
2016-12-31T07:09:24.064Z,4
2016-12-31T07:10:38.186Z,8
2016-12-31T07:11:52.956Z,8
2016-12-31T07:13:07.476Z,12
2016-12-31T07:14:21.986Z,8
2016-12-31T07:15:36.109Z,12
2016-12-31T07:16:50.584Z,16
2016-12-31T07:18:05.565Z,16
2016-12-31T07:19:19.931Z,20
2016-12-31T07:20:34.293Z,20
2016-12-31T07:21:48.874Z,36
2016-12-31T07:23:03.247Z,40
2016-12-31T07:24:17.681Z,52
2016-12-31T07:25:31.810Z,60
2016-12-31T07:26:46.095Z,72
2016-12-31T07:28:00.391Z,76
2016-12-31T07:29:16.095Z,84
2016-12-31T07:30:30.715Z,92
2016-12-31T07:31:44.809Z,80
2016-12-31T07:32:59.180Z,68
2016-12-31T07:34:13.338Z,72
2016-12-31T07:35:27.612Z,72
2016-12-31T07:36:42.097Z,72
2016-12-31T07:37:57.595Z,76
2016-12-31T07:39:11.740Z,80
2016-12-31T07:40:26.173Z,84
2016-12-31T07:41:41.342Z,92
2016-12-31T07:42:56.108Z,96
2016-12-31T07:44:10.401Z,96
2016-12-31T07:45:24.686Z,96
2016-12-31T07:46:38.935Z,96
2016-12-31T07:47:53.295Z,104
2016-12-31T07:49:07.922Z,112
2016-12-31T07:50:22.523Z,116
2016-12-31T07:51:36.772Z,124
2016-12-31T07:52:51.075Z,128
2016-12-31T07:54:05.857Z,140
2016-12-31T07:55:20.533Z,140
2016-12-31T07:56:35.104Z,144
2016-12-31T07:57:49.621Z,152
2016-12-31T07:59:03.778Z,152
2016-12-31T08:00:18.781Z,156
2016-12-31T08:01:33.209Z,156
2016-12-31T08:02:47.531Z,164
2016-12-31T08:04:03.225Z,164
2016-12-31T08:05:23.239Z,176
2016-12-31T08:06:37.441Z,180
2016-12-31T08:07:52.091Z,184
2016-12-31T08:09:07.000Z,192
2016-12-31T08:10:23.158Z,208
2016-12-31T08:11:37.323Z,212
2016-12-31T08:12:51.578Z,224
2016-12-31T08:14:06.281Z,228
2016-12-31T08:15:20.804Z,244
2016-12-31T08:16:35.140Z,284
2016-12-31T08:17:49.619Z,312
2016-12-31T08:19:03.918Z,324
2016-12-31T08:20:18.483Z,368
2016-12-31T08:21:32.640Z,348
2016-12-31T08:22:46.991Z,372
2016-12-31T08:24:01.232Z,388
2016-12-31T08:25:16.131Z,348
2016-12-31T08:26:30.598Z,328
2016-12-31T08:27:45.563Z,336
2016-12-31T08:29:00.501Z,336
2016-12-31T08:30:15.057Z,328
2016-12-31T08:31:29.347Z,332
2016-12-31T08:32:44.105Z,348
2016-12-31T08:33:59.181Z,356
2016-12-31T08:35:13.734Z,352
2016-12-31T08:36:27.830Z,352
2016-12-31T08:37:42.181Z,352
2016-12-31T08:38:57.642Z,364
2016-12-31T08:40:12.980Z,372
2016-12-31T08:41:27.934Z,356
2016-12-31T08:42:42.152Z,380
2016-12-31T08:43:56.910Z,404
2016-12-31T08:45:11.447Z,416
2016-12-31T08:46:25.719Z,412
2016-12-31T08:47:39.934Z,428
2016-12-31T08:48:54.197Z,436
2016-12-31T08:50:08.521Z,464
2016-12-31T08:51:23.326Z,484
2016-12-31T08:52:37.475Z,472
2016-12-31T08:53:52.183Z,476
2016-12-31T08:55:07.041Z,520
2016-12-31T08:56:22.371Z,552
2016-12-31T08:57:37.357Z,552
2016-12-31T08:58:51.644Z,544
2016-12-31T09:00:06.088Z,564
2016-12-31T09:01:20.286Z,556
2016-12-31T09:02:35.261Z,548
2016-12-31T09:03:49.674Z,540
2016-12-31T09:05:05.306Z,540
2016-12-31T09:06:19.890Z,532
2016-12-31T09:07:34.392Z,560
2016-12-31T09:08:49.247Z,592
2016-12-31T09:10:03.870Z,604
2016-12-31T09:11:17.977Z,596
2016-12-31T09:12:32.258Z,588
2016-12-31T09:13:46.535Z,600
2016-12-31T09:15:01.438Z,624
2016-12-31T09:16:15.596Z,620
2016-12-31T09:17:30.252Z,624
2016-12-31T09:18:44.437Z,624
2016-12-31T09:19:59.644Z,628
2016-12-31T09:21:14.370Z,624
2016-12-31T09:22:31.080Z,628
2016-12-31T09:23:45.174Z,640
2016-12-31T09:24:59.609Z,616
2016-12-31T09:26:13.802Z,612
2016-12-31T09:27:28.122Z,616
2016-12-31T09:28:42.591Z,668
2016-12-31T09:29:56.834Z,696
2016-12-31T09:31:10.954Z,712
2016-12-31T09:32:25.253Z,696
2016-12-31T09:33:39.340Z,692
2016-12-31T09:34:53.967Z,708
2016-12-31T09:36:08.772Z,704
2016-12-31T09:37:23.162Z,696
2016-12-31T09:38:38.442Z,692
2016-12-31T09:39:52.747Z,728
2016-12-31T09:41:06.897Z,780
2016-12-31T09:42:21.501Z,808
2016-12-31T09:43:35.611Z,864
2016-12-31T09:44:49.905Z,1040
2016-12-31T09:46:04.632Z,1168
2016-12-31T09:47:19.205Z,1160
2016-12-31T09:48:33.431Z,1084
2016-12-31T09:49:47.822Z,1072
2016-12-31T09:51:01.895Z,1368
2016-12-31T09:52:16.367Z,1216
2016-12-31T09:53:30.739Z,1516
2016-12-31T09:54:45.125Z,1384
2016-12-31T09:56:00.552Z,1544
2016-12-31T09:57:17.423Z,1376
2016-12-31T09:58:32.370Z,1408
2016-12-31T09:59:46.856Z,1340
2016-12-31T10:01:01.146Z,1348
2016-12-31T10:02:16.000Z,1512
2016-12-31T10:03:30.799Z,1360
2016-12-31T10:04:45.093Z,1448
2016-12-31T10:06:01.072Z,1260
2016-12-31T10:07:17.297Z,1108
2016-12-31T10:08:32.375Z,1088
2016-12-31T10:09:47.280Z,1076
2016-12-31T10:11:02.168Z,992
2016-12-31T10:12:16.395Z,988
2016-12-31T10:13:31.869Z,1076
2016-12-31T10:14:47.469Z,1192
2016-12-31T10:16:01.733Z,1000
2016-12-31T10:17:19.086Z,904
2016-12-31T10:18:34.180Z,944
2016-12-31T10:19:48.710Z,932
2016-12-31T10:21:03.434Z,888
2016-12-31T10:22:19.907Z,888
2016-12-31T10:23:35.243Z,896
2016-12-31T10:24:50.285Z,956
2016-12-31T10:26:04.997Z,1008
2016-12-31T10:27:19.349Z,1072
2016-12-31T10:28:34.673Z,1072
2016-12-31T10:29:50.089Z,1124
2016-12-31T10:31:04.971Z,1076
2016-12-31T10:32:19.756Z,992
2016-12-31T10:33:35.248Z,996
2016-12-31T10:34:50.208Z,1016
2016-12-31T10:36:04.958Z,1032
2016-12-31T10:37:38.587Z,1012
2016-12-31T10:38:54.555Z,1000
2016-12-31T10:40:11.391Z,1028
2016-12-31T10:41:26.409Z,996
2016-12-31T10:42:42.196Z,964
2016-12-31T10:43:56.444Z,988
2016-12-31T10:45:11.287Z,1056
2016-12-31T10:46:25.662Z,1064
2016-12-31T10:47:41.730Z,1000
2016-12-31T10:48:56.313Z,1032
2016-12-31T10:50:10.953Z,1088
2016-12-31T10:51:25.612Z,1144
2016-12-31T10:52:41.438Z,1132
2016-12-31T10:53:55.880Z,1248
2016-12-31T10:55:11.270Z,1212
2016-12-31T10:56:26.479Z,1148
2016-12-31T10:57:40.628Z,1164
2016-12-31T10:58:55.530Z,1180
2016-12-31T11:00:10.379Z,1152
2016-12-31T11:01:25.413Z,1152
2016-12-31T11:02:39.645Z,1172
2016-12-31T11:03:54.075Z,1144
2016-12-31T11:05:08.353Z,1140
2016-12-31T11:06:22.593Z,1180
2016-12-31T11:07:44.298Z,1200
2016-12-31T11:09:02.320Z,1140
2016-12-31T11:10:21.434Z,1164
2016-12-31T11:11:37.535Z,1164
2016-12-31T11:12:53.772Z,1196
2016-12-31T11:14:10.380Z,1200
2016-12-31T11:15:26.325Z,1184
2016-12-31T11:16:40.483Z,1188
2016-12-31T11:17:55.090Z,1240
2016-12-31T11:19:09.958Z,1240
2016-12-31T11:20:25.220Z,1204
2016-12-31T11:21:39.794Z,1208
2016-12-31T11:22:54.507Z,1188
2016-12-31T11:24:08.599Z,1212
2016-12-31T11:25:23.693Z,1228
2016-12-31T11:26:38.586Z,1252
2016-12-31T11:28:40.084Z,1300
2016-12-31T11:29:56.392Z,1260
2016-12-31T11:31:11.189Z,1372
2016-12-31T11:32:25.757Z,1380
2016-12-31T11:33:42.374Z,1296
2016-12-31T11:34:56.985Z,1292
2016-12-31T11:36:11.134Z,1308
2016-12-31T11:37:25.822Z,1516
2016-12-31T11:38:41.504Z,1476
2016-12-31T11:39:55.793Z,1376
2016-12-31T11:41:09.993Z,1340
2016-12-31T11:42:24.589Z,1380
2016-12-31T11:43:39.431Z,1292
2016-12-31T11:44:53.996Z,1152
2016-12-31T11:46:08.711Z,1144
2016-12-31T11:47:23.809Z,1200
2016-12-31T11:48:39.725Z,1216
2016-12-31T11:49:54.263Z,1276
2016-12-31T11:51:08.721Z,1188
2016-12-31T11:52:23.511Z,1148
2016-12-31T11:53:37.980Z,1208
2016-12-31T11:54:52.238Z,1232
2016-12-31T11:56:07.515Z,1284
2016-12-31T11:57:21.959Z,1268
2016-12-31T11:58:40.464Z,1320
2016-12-31T11:59:55.700Z,1380
2016-12-31T12:01:10.858Z,1428
2016-12-31T12:02:25.888Z,1292
2016-12-31T12:03:59.536Z,1408
2016-12-31T12:05:13.941Z,1692
2016-12-31T12:06:28.223Z,1932
2016-12-31T12:07:45.836Z,2216
2016-12-31T12:09:02.932Z,2596
2016-12-31T12:10:17.957Z,2788
2016-12-31T12:11:32.428Z,2624
2016-12-31T12:12:46.610Z,2392
2016-12-31T12:14:01.895Z,2492
2016-12-31T12:15:17.112Z,2532
2016-12-31T12:16:32.653Z,2376
2016-12-31T12:17:47.131Z,2384
2016-12-31T12:19:01.805Z,2456
2016-12-31T12:20:16.039Z,2508
2016-12-31T12:21:30.530Z,2476
2016-12-31T12:22:45.487Z,2424
2016-12-31T12:24:00.702Z,2260
2016-12-31T12:25:14.895Z,2164
2016-12-31T12:26:29.199Z,2156
2016-12-31T12:27:43.402Z,2108
2016-12-31T12:28:58.292Z,2120
2016-12-31T12:30:12.482Z,2036
2016-12-31T12:31:27.147Z,1952
2016-12-31T12:32:42.182Z,1840
2016-12-31T12:33:57.605Z,1724
2016-12-31T12:35:12.129Z,1644
2016-12-31T12:36:27.148Z,1736
2016-12-31T12:37:41.420Z,1756
2016-12-31T12:38:55.835Z,1712
2016-12-31T12:40:10.458Z,1644
2016-12-31T12:41:37.971Z,1592
2016-12-31T12:42:52.904Z,1524
2016-12-31T12:44:07.156Z,1416
2016-12-31T12:45:21.454Z,1416
2016-12-31T12:46:35.995Z,1448
2016-12-31T12:47:50.548Z,1456
2016-12-31T12:49:04.952Z,1404
2016-12-31T12:50:20.312Z,1196
2016-12-31T12:51:37.701Z,1068
2016-12-31T12:52:52.442Z,1040
2016-12-31T12:54:06.872Z,1056
2016-12-31T12:55:21.252Z,1012
2016-12-31T12:56:35.488Z,960
2016-12-31T12:57:49.887Z,956
2016-12-31T12:59:04.172Z,1024
2016-12-31T13:00:18.854Z,1008
2016-12-31T13:01:33.272Z,1004
2016-12-31T13:03:09.097Z,1036
2016-12-31T13:04:24.671Z,1072
2016-12-31T13:06:02.276Z,1032
2016-12-31T13:07:17.024Z,976
2016-12-31T13:08:31.761Z,912
2016-12-31T13:09:47.310Z,940
2016-12-31T13:11:01.667Z,908
2016-12-31T13:12:15.815Z,908
2016-12-31T13:13:30.091Z,924
2016-12-31T13:14:44.392Z,880
2016-12-31T13:15:58.812Z,860
2016-12-31T13:17:15.691Z,860
2016-12-31T13:18:29.831Z,864
2016-12-31T13:19:44.239Z,868
2016-12-31T13:20:58.464Z,920
2016-12-31T13:22:12.792Z,940
2016-12-31T13:23:27.506Z,920
2016-12-31T13:24:41.969Z,916
2016-12-31T13:25:56.111Z,916
2016-12-31T13:27:10.534Z,884
2016-12-31T13:28:24.827Z,940
2016-12-31T13:29:40.831Z,1012
2016-12-31T13:30:55.157Z,1108
2016-12-31T13:32:09.575Z,1060
2016-12-31T13:33:24.191Z,936
2016-12-31T13:34:38.776Z,852
2016-12-31T13:35:54.091Z,872
2016-12-31T13:37:08.280Z,924
2016-12-31T13:38:25.436Z,912
2016-12-31T13:39:39.987Z,820
2016-12-31T13:40:54.344Z,768
2016-12-31T13:42:09.390Z,704
2016-12-31T13:43:25.302Z,656
2016-12-31T13:44:40.798Z,672
2016-12-31T13:45:55.112Z,680
2016-12-31T13:47:10.406Z,660
2016-12-31T13:48:25.391Z,640
2016-12-31T13:49:40.205Z,612
2016-12-31T13:50:55.034Z,644
2016-12-31T13:52:09.236Z,680
2016-12-31T13:53:24.173Z,640
2016-12-31T13:54:38.691Z,704
2016-12-31T13:55:53.069Z,700
2016-12-31T13:57:07.276Z,604
2016-12-31T13:58:21.651Z,552
2016-12-31T13:59:36.408Z,540
2016-12-31T14:00:50.827Z,524
2016-12-31T14:02:05.099Z,516
2016-12-31T14:03:20.568Z,496
2016-12-31T14:04:35.408Z,496
2016-12-31T14:05:51.164Z,500
2016-12-31T14:07:06.032Z,484
2016-12-31T14:08:20.797Z,480
2016-12-31T14:09:35.578Z,488
2016-12-31T14:10:49.825Z,480
2016-12-31T14:12:04.209Z,468
2016-12-31T14:13:18.722Z,476
2016-12-31T14:14:33.178Z,468
2016-12-31T14:15:47.367Z,468
2016-12-31T14:17:02.308Z,448
2016-12-31T14:18:16.600Z,444
2016-12-31T14:19:31.237Z,428
2016-12-31T14:20:45.999Z,428
2016-12-31T14:22:00.356Z,404
2016-12-31T14:23:15.359Z,388
2016-12-31T14:24:29.722Z,384
2016-12-31T14:25:44.331Z,376
2016-12-31T14:27:48.900Z,356
2016-12-31T14:29:03.380Z,360
2016-12-31T14:30:18.122Z,352
2016-12-31T14:31:32.726Z,336
2016-12-31T14:32:47.017Z,320
2016-12-31T14:34:16.440Z,312
2016-12-31T14:35:33.101Z,312
2016-12-31T14:36:47.361Z,292
2016-12-31T14:38:01.892Z,288
2016-12-31T14:39:16.148Z,280
2016-12-31T14:40:54.480Z,260
2016-12-31T14:42:08.936Z,248
2016-12-31T14:43:23.187Z,244
2016-12-31T14:44:37.789Z,248
2016-12-31T14:45:53.000Z,252
2016-12-31T14:47:09.202Z,240
2016-12-31T14:48:24.270Z,236
2016-12-31T14:49:38.457Z,236
2016-12-31T14:50:52.892Z,236
2016-12-31T14:52:07.777Z,228
2016-12-31T14:53:23.787Z,216
2016-12-31T14:54:38.179Z,220
2016-12-31T14:56:12.748Z,208
2016-12-31T14:57:27.218Z,200
2016-12-31T14:58:41.653Z,192
2016-12-31T14:59:56.280Z,192
2016-12-31T15:01:10.835Z,184
2016-12-31T15:02:26.628Z,168
2016-12-31T15:03:42.662Z,156
2016-12-31T15:04:57.078Z,152
2016-12-31T15:06:11.517Z,144
2016-12-31T15:07:26.016Z,136
2016-12-31T15:08:40.475Z,132
2016-12-31T15:09:55.513Z,120
2016-12-31T15:11:10.365Z,112
2016-12-31T15:13:39.040Z,104
2016-12-31T15:14:53.298Z,100
2016-12-31T15:16:09.060Z,92
2016-12-31T15:17:23.346Z,88
2016-12-31T15:18:37.791Z,80
2016-12-31T15:19:52.239Z,80
2016-12-31T15:21:06.693Z,72
2016-12-31T15:22:21.422Z,68
2016-12-31T15:23:35.892Z,60
2016-12-31T15:24:50.156Z,60
2016-12-31T15:26:04.930Z,60
2016-12-31T15:27:19.600Z,56
2016-12-31T15:28:48.855Z,48
2016-12-31T15:30:03.838Z,44
2016-12-31T15:31:18.992Z,44
2016-12-31T15:32:33.773Z,40
2016-12-31T15:33:50.495Z,36
2016-12-31T15:35:04.950Z,32
2016-12-31T15:36:19.402Z,28
2016-12-31T15:37:33.811Z,24
2016-12-31T15:38:48.190Z,20
2016-12-31T15:40:02.586Z,20
2016-12-31T15:41:16.956Z,16
2016-12-31T15:42:31.431Z,12
2016-12-31T15:43:45.872Z,12
2016-12-31T15:45:00.418Z,12
2016-12-31T15:46:14.569Z,12
2016-12-31T15:47:28.944Z,8
2016-12-31T15:48:43.155Z,8
2016-12-31T15:49:57.670Z,8
2016-12-31T15:51:12.379Z,4
2016-12-31T15:52:27.217Z,4
2016-12-31T15:53:43.909Z,4
2016-12-31T15:54:58.473Z,4
2016-12-31T15:56:13.137Z,4
2016-12-31T15:57:27.497Z,0
2016-12-31T15:58:42.107Z,4
2016-12-31T15:59:56.795Z,4
2016-12-31T16:01:11.351Z,0
2016-12-31T16:02:25.503Z,0
2016-12-31T16:03:39.895Z,0
2016-12-31T16:04:55.435Z,0
2016-12-31T16:06:09.874Z,0
2016-12-31T16:07:24.495Z,0
2016-12-31T16:08:39.866Z,0
2016-12-31T16:09:54.375Z,0
2016-12-31T16:11:26.988Z,0
2016-12-31T16:12:41.625Z,0
2016-12-31T16:13:55.928Z,0
2016-12-31T16:15:10.413Z,0
2016-12-31T16:16:24.701Z,0
2016-12-31T16:17:58.782Z,0
2016-12-31T16:19:14.443Z,0
2016-12-31T16:20:29.678Z,0
2016-12-31T16:21:44.130Z,0
2016-12-31T16:22:59.330Z,0
2016-12-31T16:24:13.976Z,0
2016-12-31T16:25:32.554Z,0
2016-12-31T16:26:47.189Z,0
2016-12-31T16:28:04.675Z,0
2016-12-31T16:29:19.735Z,0
2016-12-31T16:30:34.528Z,0
2016-12-31T16:31:49.418Z,0
2016-12-31T16:33:03.763Z,0
2016-12-31T16:34:19.747Z,0
2016-12-31T16:35:34.643Z,0
2016-12-31T16:36:50.319Z,0
2016-12-31T16:38:06.376Z,0
2016-12-31T16:39:25.168Z,0
2016-12-31T16:40:43.049Z,0
2016-12-31T16:41:59.668Z,0
2016-12-31T16:43:15.802Z,0
2016-12-31T16:44:31.927Z,0
2016-12-31T16:45:49.408Z,0
2016-12-31T16:47:05.824Z,0
2016-12-31T16:48:21.139Z,0
2016-12-31T16:49:36.585Z,0
2016-12-31T16:50:52.219Z,0
2016-12-31T16:52:06.123Z,0
2016-12-31T16:53:20.937Z,0
2016-12-31T16:54:40.768Z,0
2016-12-31T16:55:58.443Z,0
2016-12-31T16:57:13.699Z,0
2016-12-31T16:58:27.224Z,0
2016-12-31T16:59:43.651Z,0
2016-12-31T17:00:58.746Z,0
2016-12-31T17:02:12.518Z,0
2016-12-31T17:03:27.681Z,0
2016-12-31T17:04:42.311Z,0
2016-12-31T17:05:56.170Z,0
2016-12-31T17:07:09.812Z,0
2016-12-31T17:08:25.582Z,0
2016-12-31T17:09:39.517Z,0
2016-12-31T17:10:54.433Z,0
2016-12-31T17:12:11.301Z,0
2016-12-31T17:13:27.267Z,0
2016-12-31T17:14:41.990Z,0
2016-12-31T17:15:56.470Z,0
2016-12-31T17:17:10.934Z,0
2016-12-31T17:18:24.596Z,0
2016-12-31T17:19:40.269Z,0
2016-12-31T17:20:53.821Z,0
2016-12-31T17:22:07.406Z,0
2016-12-31T17:23:22.540Z,0
2016-12-31T17:24:36.388Z,0
2016-12-31T17:25:50.039Z,0
2016-12-31T17:27:18.414Z,0
2016-12-31T17:28:32.501Z,0
2016-12-31T17:29:46.405Z,0
2016-12-31T17:31:01.246Z,0
2016-12-31T17:32:15.425Z,0
2016-12-31T17:33:31.029Z,0
2016-12-31T17:34:45.388Z,0
2016-12-31T17:36:00.768Z,0
2016-12-31T17:37:15.341Z,0
2016-12-31T17:38:29.699Z,0
2016-12-31T17:40:06.557Z,0
2016-12-31T17:41:37.864Z,0
2016-12-31T17:42:53.607Z,0
2016-12-31T17:44:08.634Z,0
2016-12-31T17:45:22.556Z,0
2016-12-31T17:46:36.486Z,0